Time,TemperatureF,DewpointF,PressureIn,WindDirection,WindDirectionDegrees,WindSpeedMPH,WindSpeedGustMPH,Humidity,HourlyPrecipIn,Conditions,Clouds,dailyrainin,SolarRadiationWatts/m^2,SoftwareType,DateUTC
2013-04-29 00:01:00,53.3,52.2,29.83,ESE,118,0.0,0.0,96,0.01,RA,,0.00,0.0,WeatherDisplay:10.37,2013-04-29 04:01:00,
2013-04-29 00:06:00,53.3,52.2,29.83,ESE,118,0.0,0.0,96,0.00,RA,,0.00,0.0,WeatherDisplay:10.37,2013-04-29 04:06:00,
2013-04-29 00:11:00,53.3,52.2,29.83,ESE,118,0.0,0.0,96,0.00,CLR,,0.00,0.0,WeatherDisplay:10.37,2013-04-29 04:11:00,
2013-04-29 00:16:00,53.3,52.2,29.83,ESE,118,0.0,0.0,96,0.00,CLR,,0.00,0.0,WeatherDisplay:10.37,2013-04-29 04:16:00,
2013-04-29 00:21:00,53.2,52.1,29.83,ESE,118,0.0,0.0,96,0.00,CLR,,0.00,0.0,WeatherDisplay:10.37,2013-04-29 04:21:00,
2013-04-29 00:26:00,53.2,52.1,29.83,ESE,118,0.0,0.0,96,0.00,CLR,,0.00,0.0,WeatherDisplay:10.37,2013-04-29 04:26:00,
2013-04-29 00:31:00,53.2,52.4,29.83,ESE,118,0.0,0.0,97,0.00,CLR,,0.00,0.0,WeatherDisplay:10.37,2013-04-29 04:31:00,
2013-04-29 00:36:00,53.3,52.5,29.83,ESE,118,0.0,0.0,97,0.00,CLR,,0.00,0.0,WeatherDisplay:10.37,2013-04-29 04:36:00,
2013-04-29 00:41:00,53.3,52.5,29.82,ESE,118,0.0,0.0,97,0.00,CLR,,0.00,0.0,WeatherDisplay:10.37,2013-04-29 04:41:00,
2013-04-29 00:46:00,53.3,52.5,29.83,ESE,118,0.0,0.0,97,0.00,CLR,,0.00,0.0,WeatherDisplay:10.37,2013-04-29 04:46:00,
2013-04-29 00:51:00,53.3,52.5,29.83,ESE,118,0.0,0.0,97,0.00,CLR,,0.00,0.0,WeatherDisplay:10.37,2013-04-29 04:51:00,
2013-04-29 00:56:00,53.3,52.5,29.83,ESE,118,0.0,0.0,97,0.00,CLR,,0.00,0.0,WeatherDisplay:10.37,2013-04-29 04:56:00,
2013-04-29 01:01:00,53.3,52.5,29.83,ESE,118,0.0,0.0,97,0.00,CLR,,0.00,0.0,WeatherDisplay:10.37,2013-04-29 05:01:00,
2013-04-29 01:06:00,53.3,52.5,29.83,ESE,118,0.0,0.0,97,0.00,CLR,,0.00,0.0,WeatherDisplay:10.37,2013-04-29 05:06:00,
2013-04-29 01:11:00,53.4,52.6,29.83,ESE,118,0.0,0.0,97,0.00,CLR,,0.00,0.0,WeatherDisplay:10.37,2013-04-29 05:11:00,
2013-04-29 01:16:00,53.4,52.6,29.83,ESE,118,0.0,0.0,97,0.00,CLR,,0.00,0.0,WeatherDisplay:10.37,2013-04-29 05:16:00,
2013-04-29 01:21:00,53.5,52.7,29.83,ESE,118,0.0,0.0,97,0.00,CLR,,0.00,0.0,WeatherDisplay:10.37,2013-04-29 05:21:00,
2013-04-29 01:26:00,53.5,52.7,29.83,ESE,118,0.0,0.0,97,0.00,CLR,,0.00,0.0,WeatherDisplay:10.37,2013-04-29 05:26:00,
2013-04-29 01:31:00,53.5,52.7,29.83,ESE,118,0.0,0.0,97,0.00,CLR,,0.00,0.0,WeatherDisplay:10.37,2013-04-29 05:31:00,
2013-04-29 01:36:00,53.5,52.7,29.83,ESE,118,0.0,0.0,97,0.00,CLR,,0.00,0.0,WeatherDisplay:10.37,2013-04-29 05:36:00,
2013-04-29 01:41:00,53.5,52.7,29.83,ESE,118,0.0,0.0,97,0.00,CLR,,0.00,0.0,WeatherDisplay:10.37,2013-04-29 05:41:00,
2013-04-29 01:46:00,53.5,52.7,29.83,ESE,118,0.0,0.0,97,0.00,CLR,,0.00,0.0,WeatherDisplay:10.37,2013-04-29 05:46:00,
2013-04-29 01:51:00,53.5,52.7,29.83,ESE,118,0.0,0.0,97,0.00,CLR,,0.00,0.0,WeatherDisplay:10.37,2013-04-29 05:51:00,
2013-04-29 01:56:00,53.5,52.7,29.83,ESE,118,0.0,0.0,97,0.00,CLR,,0.00,0.0,WeatherDisplay:10.37,2013-04-29 05:56:00,
2013-04-29 02:02:00,53.5,52.7,29.83,ESE,118,0.0,0.0,97,0.00,CLR,,0.00,0.0,WeatherDisplay:10.37,2013-04-29 06:02:00,
2013-04-29 02:07:00,53.5,52.7,29.83,ESE,118,0.0,0.0,97,0.00,CLR,,0.00,0.0,WeatherDisplay:10.37,2013-04-29 06:07:00,
2013-04-29 02:12:00,53.5,52.7,29.83,ESE,118,0.0,0.0,97,0.00,CLR,,0.00,0.0,WeatherDisplay:10.37,2013-04-29 06:12:00,
2013-04-29 02:17:00,53.5,52.7,29.83,ESE,118,1.1,1.1,97,0.00,CLR,,0.00,0.0,WeatherDisplay:10.37,2013-04-29 06:17:00,
2013-04-29 02:22:00,53.5,52.7,29.83,ESE,118,1.1,1.1,97,0.00,CLR,,0.00,0.0,WeatherDisplay:10.37,2013-04-29 06:22:00,
2013-04-29 02:27:00,53.4,52.6,29.83,South,181,2.3,2.3,97,0.00,CLR,,0.00,0.0,WeatherDisplay:10.37,2013-04-29 06:27:00,
2013-04-29 02:32:00,53.4,52.6,29.83,South,181,1.1,1.1,97,0.00,CLR,,0.00,0.0,WeatherDisplay:10.37,2013-04-29 06:32:00,
2013-04-29 02:37:00,53.4,52.6,29.83,South,181,2.3,2.3,97,0.00,CLR,,0.00,0.0,WeatherDisplay:10.37,2013-04-29 06:37:00,
2013-04-29 02:42:00,53.4,52.6,29.83,South,182,2.3,2.3,97,0.00,CLR,,0.00,0.0,WeatherDisplay:10.37,2013-04-29 06:42:00,
2013-04-29 02:47:00,53.3,52.5,29.83,SW,221,1.1,1.1,97,0.00,CLR,,0.00,0.0,WeatherDisplay:10.37,2013-04-29 06:47:00,
2013-04-29 02:52:00,53.3,52.5,29.83,SW,221,0.0,0.0,97,0.00,CLR,,0.00,0.0,WeatherDisplay:10.37,2013-04-29 06:52:00,
2013-04-29 02:57:00,53.3,52.5,29.83,SW,221,0.0,0.0,97,0.00,CLR,,0.00,0.0,WeatherDisplay:10.37,2013-04-29 06:57:00,
2013-04-29 03:02:00,53.3,52.5,29.83,SW,221,2.3,2.3,97,0.00,CLR,,0.00,0.0,WeatherDisplay:10.37,2013-04-29 07:02:00,
2013-04-29 03:07:00,53.3,52.5,29.83,SW,221,1.1,0.0,97,0.00,CLR,,0.00,0.0,WeatherDisplay:10.37,2013-04-29 07:07:00,
2013-04-29 03:12:00,53.3,52.5,29.83,SW,221,1.1,1.1,97,0.00,CLR,,0.00,0.0,WeatherDisplay:10.37,2013-04-29 07:12:00,
2013-04-29 03:17:00,53.2,52.4,29.83,SW,221,1.1,1.1,97,0.00,CLR,,0.00,0.0,WeatherDisplay:10.37,2013-04-29 07:17:00,
2013-04-29 03:22:00,53.2,52.4,29.83,SW,221,2.3,2.3,97,0.00,CLR,,0.00,0.0,WeatherDisplay:10.37,2013-04-29 07:22:00,
2013-04-29 03:27:00,53.2,52.4,29.83,SW,221,1.1,1.1,97,0.00,CLR,,0.00,0.0,WeatherDisplay:10.37,2013-04-29 07:27:00,
2013-04-29 03:32:00,53.2,52.4,29.83,SW,221,2.3,2.3,97,0.00,CLR,,0.00,0.0,WeatherDisplay:10.37,2013-04-29 07:32:00,
2013-04-29 03:37:00,53.2,52.4,29.83,SW,221,1.1,1.1,97,0.00,CLR,,0.00,0.0,WeatherDisplay:10.37,2013-04-29 07:37:00,
2013-04-29 03:42:00,53.2,52.4,29.83,SW,221,2.3,2.3,97,0.00,CLR,,0.00,0.0,WeatherDisplay:10.37,2013-04-29 07:42:00,
2013-04-29 03:47:00,53.2,52.4,29.83,West,273,3.5,3.5,97,0.00,CLR,,0.00,0.0,WeatherDisplay:10.37,2013-04-29 07:47:00,
2013-04-29 03:52:00,53.2,52.4,29.83,West,273,2.3,2.3,97,0.00,CLR,,0.00,0.0,WeatherDisplay:10.37,2013-04-29 07:52:00,
2013-04-29 03:57:00,53.2,52.4,29.84,WNW,293,3.5,3.5,97,0.00,CLR,,0.00,0.0,WeatherDisplay:10.37,2013-04-29 07:57:00,
2013-04-29 04:02:00,53.2,52.4,29.83,WNW,282,3.5,3.5,97,0.01,RA,,0.01,0.0,WeatherDisplay:10.37,2013-04-29 08:02:00,
2013-04-29 04:07:00,53.2,52.4,29.84,West,266,3.5,3.5,97,0.01,RA,,0.01,0.0,WeatherDisplay:10.37,2013-04-29 08:07:00,
2013-04-29 04:12:00,53.2,52.4,29.84,West,277,4.0,4.0,97,0.01,,,0.01,0.0,WeatherDisplay:10.37,2013-04-29 08:12:00,
2013-04-29 04:17:00,53.1,52.3,29.84,WNW,290,3.5,3.5,97,0.01,CLR,,0.01,0.0,WeatherDisplay:10.37,2013-04-29 08:17:00,
2013-04-29 04:22:00,53.1,52.3,29.84,WNW,292,2.3,2.3,97,0.01,CLR,,0.01,0.0,WeatherDisplay:10.37,2013-04-29 08:22:00,
2013-04-29 04:27:00,53.1,52.3,29.84,WNW,290,2.3,2.3,97,0.01,CLR,,0.01,0.0,WeatherDisplay:10.37,2013-04-29 08:27:00,
2013-04-29 04:32:00,53.1,52.3,29.84,WNW,290,2.3,2.3,97,0.01,CLR,,0.01,0.0,WeatherDisplay:10.37,2013-04-29 08:32:00,
2013-04-29 04:37:00,53.1,52.3,29.84,WNW,285,1.1,1.1,97,0.01,CLR,,0.01,0.0,WeatherDisplay:10.37,2013-04-29 08:37:00,
2013-04-29 04:42:00,53.1,52.3,29.84,WNW,285,2.3,2.3,97,0.01,CLR,,0.01,0.0,WeatherDisplay:10.37,2013-04-29 08:42:00,
2013-04-29 04:47:00,53.1,52.3,29.84,West,276,1.1,0.0,97,0.01,CLR,,0.01,0.0,WeatherDisplay:10.37,2013-04-29 08:47:00,
2013-04-29 04:52:00,53.1,52.3,29.84,West,276,1.1,1.1,97,0.01,CLR,,0.01,0.0,WeatherDisplay:10.37,2013-04-29 08:52:00,
2013-04-29 04:57:00,53.1,52.3,29.84,West,276,2.3,2.3,97,0.01,CLR,,0.01,0.0,WeatherDisplay:10.37,2013-04-29 08:57:00,
2013-04-29 05:02:00,53.0,52.2,29.85,West,276,3.5,3.5,97,0.00,CLR,,0.01,0.0,WeatherDisplay:10.37,2013-04-29 09:02:00,
2013-04-29 05:07:00,53.0,52.2,29.85,West,267,4.0,4.0,97,0.00,CLR,,0.01,0.0,WeatherDisplay:10.37,2013-04-29 09:07:00,
2013-04-29 05:12:00,53.0,52.2,29.85,WNW,286,4.0,4.0,97,0.00,CLR,,0.01,0.0,WeatherDisplay:10.37,2013-04-29 09:12:00,
2013-04-29 05:17:00,53.0,52.2,29.85,WNW,302,4.6,4.6,97,0.00,CLR,,0.01,0.0,WeatherDisplay:10.37,2013-04-29 09:17:00,
2013-04-29 05:22:00,53.0,52.2,29.85,WNW,286,7.0,7.0,97,0.00,CLR,,0.01,0.0,WeatherDisplay:10.37,2013-04-29 09:22:00,
2013-04-29 05:27:00,53.0,52.2,29.85,WNW,292,4.0,4.0,97,0.00,CLR,,0.01,0.0,WeatherDisplay:10.37,2013-04-29 09:27:00,
2013-04-29 05:32:00,53.0,52.2,29.85,NW,313,5.8,5.8,97,0.00,CLR,,0.01,0.0,WeatherDisplay:10.37,2013-04-29 09:32:00,
2013-04-29 05:37:00,53.0,52.2,29.85,NNW,327,4.0,4.0,97,0.00,CLR,,0.01,0.0,WeatherDisplay:10.37,2013-04-29 09:37:00,
2013-04-29 05:42:00,52.9,52.1,29.85,NNW,327,4.6,4.6,97,0.00,CLR,,0.01,0.0,WeatherDisplay:10.37,2013-04-29 09:42:00,
2013-04-29 05:47:00,52.9,52.1,29.85,NW,314,3.5,3.5,97,0.00,CLR,,0.01,0.0,WeatherDisplay:10.37,2013-04-29 09:47:00,
2013-04-29 05:52:00,52.8,52.0,29.86,NW,309,3.5,3.5,97,0.00,CLR,,0.01,0.0,WeatherDisplay:10.37,2013-04-29 09:52:00,
2013-04-29 05:57:00,52.8,52.3,29.86,NW,309,2.3,2.3,98,0.00,CLR,,0.01,0.0,WeatherDisplay:10.37,2013-04-29 09:57:00,
2013-04-29 06:02:00,52.8,52.3,29.86,NW,307,2.3,2.3,98,0.00,CLR,,0.01,0.0,WeatherDisplay:10.37,2013-04-29 10:02:00,
2013-04-29 06:07:00,52.8,52.3,29.86,NW,307,2.3,2.3,98,0.00,CLR,,0.01,0.0,WeatherDisplay:10.37,2013-04-29 10:07:00,
2013-04-29 06:12:00,52.8,52.3,29.86,NW,307,2.3,2.3,98,0.00,CLR,,0.01,0.0,WeatherDisplay:10.37,2013-04-29 10:12:00,
2013-04-29 06:17:00,52.7,52.2,29.86,NW,307,2.3,2.3,98,0.00,CLR,,0.01,0.0,WeatherDisplay:10.37,2013-04-29 10:17:00,
2013-04-29 06:22:00,52.7,52.2,29.86,NW,304,1.1,1.1,98,0.00,CLR,,0.01,0.0,WeatherDisplay:10.37,2013-04-29 10:22:00,
2013-04-29 06:27:00,52.7,52.2,29.87,NW,304,3.5,3.5,98,0.00,CLR,,0.01,0.0,WeatherDisplay:10.37,2013-04-29 10:27:00,
2013-04-29 06:32:00,52.7,52.2,29.87,NW,304,2.3,2.3,98,0.00,CLR,,0.01,0.0,WeatherDisplay:10.37,2013-04-29 10:32:00,
2013-04-29 06:37:00,52.7,52.2,29.87,NW,304,2.3,2.3,98,0.00,CLR,,0.01,0.0,WeatherDisplay:10.37,2013-04-29 10:37:00,
2013-04-29 06:42:00,52.7,52.2,29.87,NW,304,1.1,1.1,98,0.00,CLR,,0.01,0.0,WeatherDisplay:10.37,2013-04-29 10:42:00,
2013-04-29 06:47:00,52.8,52.3,29.87,NW,315,3.5,3.5,98,0.00,CLR,,0.01,0.0,WeatherDisplay:10.37,2013-04-29 10:47:00,
2013-04-29 06:52:00,52.7,52.2,29.87,WNW,298,4.6,4.6,98,0.00,CLR,,0.01,5.0,WeatherDisplay:10.37,2013-04-29 10:52:00,
2013-04-29 06:57:00,52.7,51.9,29.88,WNW,297,2.3,2.3,97,0.00,CLR,,0.01,9.0,WeatherDisplay:10.37,2013-04-29 10:57:00,
2013-04-29 07:02:00,52.7,51.9,29.88,WNW,297,2.3,2.3,97,0.00,CLR,,0.01,12.0,WeatherDisplay:10.37,2013-04-29 11:02:00,
2013-04-29 07:07:00,52.8,52.0,29.88,WNW,297,2.0,2.0,97,0.00,CLR,,0.01,11.0,WeatherDisplay:10.37,2013-04-29 11:07:00,
2013-04-29 07:12:00,52.8,52.0,29.88,WNW,297,2.3,2.3,97,0.00,CLR,,0.01,7.0,WeatherDisplay:10.37,2013-04-29 11:12:00,
2013-04-29 07:17:00,52.8,52.0,29.88,NW,316,3.5,3.5,97,0.00,CLR,,0.01,7.0,WeatherDisplay:10.37,2013-04-29 11:17:00,
2013-04-29 07:22:00,52.8,52.0,29.88,NW,305,2.3,2.3,97,0.00,CLR,,0.01,11.0,WeatherDisplay:10.37,2013-04-29 11:22:00,
2013-04-29 07:27:00,52.8,52.0,29.88,NW,305,1.1,1.1,97,0.00,CLR,,0.01,18.0,WeatherDisplay:10.37,2013-04-29 11:27:00,
2013-04-29 07:32:00,52.8,52.3,29.88,NW,305,1.1,1.1,98,0.00,CLR,,0.01,19.0,WeatherDisplay:10.37,2013-04-29 11:32:00,
2013-04-29 07:37:00,52.9,52.4,29.89,NW,305,1.1,0.0,98,0.00,CLR,,0.01,19.0,WeatherDisplay:10.37,2013-04-29 11:37:00,
2013-04-29 07:42:00,52.9,52.4,29.89,NW,305,3.5,3.5,98,0.00,CLR,,0.01,21.0,WeatherDisplay:10.37,2013-04-29 11:42:00,
2013-04-29 07:47:00,53.0,52.5,29.89,NW,305,1.1,1.1,98,0.00,CLR,,0.01,25.0,WeatherDisplay:10.37,2013-04-29 11:47:00,
2013-04-29 07:52:00,53.0,52.5,29.89,NW,304,1.1,1.1,98,0.00,CLR,,0.01,28.0,WeatherDisplay:10.37,2013-04-29 11:52:00,
2013-04-29 07:57:00,53.0,52.5,29.90,WNW,300,4.0,4.0,98,0.00,CLR,,0.01,25.0,WeatherDisplay:10.37,2013-04-29 11:57:00,
2013-04-29 08:02:00,53.0,52.5,29.90,WNW,294,2.3,2.3,98,0.00,OVC,,0.01,35.0,WeatherDisplay:10.37,2013-04-29 12:02:00,
2013-04-29 08:07:00,53.0,52.5,29.90,WNW,294,2.3,2.3,98,0.00,OVC,,0.01,37.0,WeatherDisplay:10.37,2013-04-29 12:07:00,
2013-04-29 08:12:00,53.1,52.6,29.90,WNW,294,1.1,0.0,98,0.00,OVC,,0.01,53.0,WeatherDisplay:10.37,2013-04-29 12:12:00,
2013-04-29 08:17:00,53.2,52.7,29.90,WNW,294,3.5,3.5,98,0.00,OVC,,0.01,69.0,WeatherDisplay:10.37,2013-04-29 12:17:00,
2013-04-29 08:22:00,53.2,52.7,29.90,WNW,294,0.0,0.0,98,0.00,OVC,,0.01,77.0,WeatherDisplay:10.37,2013-04-29 12:22:00,
2013-04-29 08:27:00,53.3,52.8,29.89,WNW,294,0.0,0.0,98,0.00,OVC,,0.01,79.0,WeatherDisplay:10.37,2013-04-29 12:27:00,
2013-04-29 08:32:00,53.4,52.8,29.89,WNW,294,0.0,0.0,98,0.00,OVC,,0.01,76.0,WeatherDisplay:10.37,2013-04-29 12:32:00,
2013-04-29 08:37:00,53.5,52.9,29.89,WNW,294,3.0,3.0,98,0.00,OVC,,0.01,81.0,WeatherDisplay:10.37,2013-04-29 12:37:00,
2013-04-29 08:42:00,53.5,52.9,29.90,WNW,294,2.3,2.3,98,0.00,OVC,,0.01,72.0,WeatherDisplay:10.37,2013-04-29 12:42:00,
2013-04-29 08:47:00,53.4,52.8,29.90,WNW,294,2.3,2.3,98,0.00,OVC,,0.01,76.0,WeatherDisplay:10.37,2013-04-29 12:47:00,
2013-04-29 08:52:00,53.5,52.9,29.90,WNW,294,3.5,3.5,98,0.00,OVC,,0.01,105.0,WeatherDisplay:10.37,2013-04-29 12:52:00,
2013-04-29 08:57:00,53.5,52.9,29.91,WNW,287,4.0,4.0,98,0.00,OVC,,0.01,79.0,WeatherDisplay:10.37,2013-04-29 12:57:00,
2013-04-29 09:02:00,53.5,52.9,29.91,WNW,286,3.5,3.5,98,0.00,OVC,,0.01,56.0,WeatherDisplay:10.37,2013-04-29 13:02:00,
2013-04-29 09:07:00,53.5,52.9,29.91,WNW,286,2.3,2.3,98,0.00,OVC,,0.01,70.0,WeatherDisplay:10.37,2013-04-29 13:07:00,
2013-04-29 09:12:00,53.6,53.0,29.91,West,279,4.6,4.6,98,0.00,OVC,,0.01,90.0,WeatherDisplay:10.37,2013-04-29 13:12:00,
2013-04-29 09:17:00,53.7,52.9,29.91,WNW,290,5.0,5.0,97,0.00,OVC,,0.01,125.0,WeatherDisplay:10.37,2013-04-29 13:17:00,
2013-04-29 09:22:00,53.7,52.9,29.91,West,277,3.5,3.5,97,0.00,OVC,,0.01,153.0,WeatherDisplay:10.37,2013-04-29 13:22:00,
2013-04-29 09:28:00,53.8,53.0,29.91,West,273,2.3,2.3,97,0.00,OVC,,0.01,141.0,WeatherDisplay:10.37,2013-04-29 13:28:00,
2013-04-29 09:33:00,53.9,53.1,29.91,West,273,2.0,2.0,97,0.00,OVC,,0.01,105.0,WeatherDisplay:10.37,2013-04-29 13:33:00,
2013-04-29 09:38:00,54.0,53.2,29.91,West,273,2.3,2.3,97,0.00,OVC,,0.01,134.0,WeatherDisplay:10.37,2013-04-29 13:38:00,
2013-04-29 09:43:00,54.1,53.3,29.91,West,277,3.5,3.5,97,0.00,OVC,,0.01,135.0,WeatherDisplay:10.37,2013-04-29 13:43:00,
2013-04-29 09:48:00,54.2,53.4,29.91,West,273,3.5,3.5,97,0.00,OVC,,0.01,144.0,WeatherDisplay:10.37,2013-04-29 13:48:00,
2013-04-29 09:53:00,54.4,53.6,29.91,West,273,2.3,2.3,97,0.00,OVC,,0.01,153.0,WeatherDisplay:10.37,2013-04-29 13:53:00,
2013-04-29 09:58:00,54.6,53.5,29.91,WSW,256,3.5,3.5,96,0.00,OVC,,0.01,162.0,WeatherDisplay:10.37,2013-04-29 13:58:00,
2013-04-29 10:03:00,54.7,53.6,29.91,WSW,255,5.8,5.8,96,0.00,OVC,,0.01,148.0,WeatherDisplay:10.37,2013-04-29 14:03:00,
2013-04-29 10:08:00,54.8,53.4,29.92,West,275,4.6,4.6,95,0.00,OVC,,0.01,149.0,WeatherDisplay:10.37,2013-04-29 14:08:00,
2013-04-29 10:13:00,55.0,53.3,29.92,WSW,251,3.5,3.5,94,0.00,OVC,,0.01,158.0,WeatherDisplay:10.37,2013-04-29 14:13:00,
2013-04-29 10:18:00,55.1,53.1,29.92,West,272,4.6,4.6,93,0.00,OVC,,0.01,169.0,WeatherDisplay:10.37,2013-04-29 14:18:00,
2013-04-29 10:23:00,55.2,52.9,29.92,West,274,4.6,4.6,92,0.00,OVC,,0.01,171.0,WeatherDisplay:10.37,2013-04-29 14:23:00,
2013-04-29 10:28:00,55.4,53.1,29.92,West,272,4.6,4.6,92,0.00,OVC,,0.01,183.0,WeatherDisplay:10.37,2013-04-29 14:28:00,
2013-04-29 10:33:00,55.6,53.0,29.92,West,273,2.3,2.3,91,0.00,OVC,,0.01,200.0,WeatherDisplay:10.37,2013-04-29 14:33:00,
2013-04-29 10:38:00,55.8,52.9,29.92,West,273,6.9,6.9,90,0.00,OVC,,0.01,144.0,WeatherDisplay:10.37,2013-04-29 14:38:00,
2013-04-29 10:43:00,55.9,53.0,29.92,WSW,249,3.5,3.5,90,0.00,OVC,,0.01,162.0,WeatherDisplay:10.37,2013-04-29 14:43:00,
2013-04-29 10:48:00,56.0,53.1,29.92,WSW,244,4.6,4.6,90,0.00,OVC,,0.01,204.0,WeatherDisplay:10.37,2013-04-29 14:48:00,
2013-04-29 10:53:00,56.1,52.9,29.92,WSW,255,4.6,4.6,89,0.00,OVC,,0.01,185.0,WeatherDisplay:10.37,2013-04-29 14:53:00,
2013-04-29 10:58:00,56.3,53.1,29.92,WSW,257,4.6,4.6,89,0.00,OVC,,0.01,230.0,WeatherDisplay:10.37,2013-04-29 14:58:00,
2013-04-29 11:03:00,56.4,52.9,29.92,WSW,257,4.6,4.6,88,0.00,OVC,,0.01,200.0,WeatherDisplay:10.37,2013-04-29 15:03:00,
2013-04-29 11:08:00,56.6,52.8,29.92,WSW,240,2.3,2.3,87,0.00,OVC,,0.01,239.0,WeatherDisplay:10.37,2013-04-29 15:08:00,
2013-04-29 11:13:00,56.9,53.4,29.92,WNW,292,4.6,4.6,88,0.00,OVC,,0.01,348.0,WeatherDisplay:10.37,2013-04-29 15:13:00,
2013-04-29 11:18:00,57.3,53.1,29.92,WNW,289,4.6,4.6,86,0.00,OVC,,0.01,503.0,WeatherDisplay:10.37,2013-04-29 15:18:00,
2013-04-29 11:23:00,58.1,54.6,29.92,NNW,341,3.5,3.5,88,0.00,OVC,,0.01,814.0,WeatherDisplay:10.37,2013-04-29 15:23:00,
2013-04-29 11:28:00,58.3,53.5,29.92,North,360,2.0,2.0,84,0.00,OVC,,0.01,243.0,WeatherDisplay:10.37,2013-04-29 15:28:00,
2013-04-29 11:33:00,58.3,53.2,29.92,North,360,4.6,4.6,83,0.00,OVC,,0.01,197.0,WeatherDisplay:10.37,2013-04-29 15:33:00,
2013-04-29 11:38:00,58.1,53.6,29.92,North,350,4.6,4.6,85,0.00,CLR,,0.01,200.0,WeatherDisplay:10.37,2013-04-29 15:38:00,
2013-04-29 11:43:00,58.0,53.5,29.92,NNW,330,4.6,4.6,85,0.00,CLR,,0.01,285.0,WeatherDisplay:10.37,2013-04-29 15:43:00,
2013-04-29 11:48:00,58.1,53.6,29.92,WNW,284,4.0,4.0,85,0.00,CLR,,0.01,318.0,WeatherDisplay:10.37,2013-04-29 15:48:00,
2013-04-29 11:53:00,58.6,54.1,29.92,WNW,298,5.8,5.8,85,0.00,CLR,,0.01,689.0,WeatherDisplay:10.37,2013-04-29 15:53:00,
2013-04-29 11:58:00,59.3,53.8,29.91,NNW,333,2.3,2.3,82,0.00,CLR,,0.01,403.0,WeatherDisplay:10.37,2013-04-29 15:58:00,
2013-04-29 12:03:00,59.4,53.9,29.92,NW,313,5.8,5.8,82,0.00,CLR,,0.01,325.0,WeatherDisplay:10.37,2013-04-29 16:03:00,
2013-04-29 12:08:00,59.4,54.2,29.91,WNW,290,3.5,3.5,83,0.00,CLR,,0.01,299.0,WeatherDisplay:10.37,2013-04-29 16:08:00,
2013-04-29 12:13:00,59.6,53.8,29.91,West,269,2.3,2.3,81,0.00,CLR,,0.01,418.0,WeatherDisplay:10.37,2013-04-29 16:13:00,
2013-04-29 12:18:00,60.3,54.8,29.91,SW,232,6.9,6.9,82,0.00,CLR,,0.01,466.0,WeatherDisplay:10.37,2013-04-29 16:18:00,
2013-04-29 12:23:00,60.8,55.3,29.91,NNE,17,6.0,6.0,82,0.00,CLR,,0.01,519.0,WeatherDisplay:10.37,2013-04-29 16:23:00,
2013-04-29 12:28:00,60.8,54.2,29.91,NW,309,4.6,4.6,79,0.00,CLR,,0.01,445.0,WeatherDisplay:10.37,2013-04-29 16:28:00,
2013-04-29 12:33:00,60.9,55.4,29.91,NNW,338,6.0,6.0,82,0.00,CLR,,0.01,404.0,WeatherDisplay:10.37,2013-04-29 16:33:00,
2013-04-29 12:38:00,60.8,53.9,29.91,NW,320,4.6,4.6,78,0.00,CLR,,0.01,385.0,WeatherDisplay:10.37,2013-04-29 16:38:00,
2013-04-29 12:43:00,61.3,54.7,29.91,WSW,245,2.3,2.3,79,0.00,CLR,,0.01,1095.0,WeatherDisplay:10.37,2013-04-29 16:43:00,
2013-04-29 12:48:00,61.9,55.3,29.91,West,273,4.6,4.6,79,0.00,CLR,,0.01,427.0,WeatherDisplay:10.37,2013-04-29 16:48:00,
2013-04-29 12:53:00,61.8,54.2,29.91,WSW,246,4.6,4.6,76,0.00,CLR,,0.01,334.0,WeatherDisplay:10.37,2013-04-29 16:53:00,
2013-04-29 12:58:00,62.1,54.4,29.91,WSW,252,1.1,1.1,76,0.00,CLR,,0.01,403.0,WeatherDisplay:10.37,2013-04-29 16:58:00,
2013-04-29 13:03:00,62.9,54.9,29.90,WSW,258,4.6,4.6,75,0.00,CLR,,0.01,1109.0,WeatherDisplay:10.37,2013-04-29 17:03:00,
2013-04-29 13:08:00,63.4,55.3,29.90,West,259,6.9,6.9,75,0.00,CLR,,0.01,1041.0,WeatherDisplay:10.37,2013-04-29 17:08:00,
2013-04-29 13:13:00,63.4,55.3,29.90,WSW,241,3.5,3.5,75,0.00,CLR,,0.01,1056.0,WeatherDisplay:10.37,2013-04-29 17:13:00,
2013-04-29 13:18:00,63.5,54.7,29.90,North,360,3.5,3.5,73,0.00,CLR,,0.01,1099.0,WeatherDisplay:10.37,2013-04-29 17:18:00,
2013-04-29 13:23:00,64.1,56.4,29.90,WNW,292,5.8,5.8,76,0.00,CLR,,0.01,1069.0,WeatherDisplay:10.37,2013-04-29 17:23:00,
2013-04-29 13:28:00,64.2,55.0,29.90,West,280,3.5,3.5,72,0.00,CLR,,0.01,1063.0,WeatherDisplay:10.37,2013-04-29 17:28:00,
2013-04-29 13:33:00,63.8,54.6,29.90,WNW,301,5.0,5.0,72,0.00,CLR,,0.01,360.0,WeatherDisplay:10.37,2013-04-29 17:33:00,
2013-04-29 13:38:00,63.8,55.4,29.90,SW,230,5.8,5.8,74,0.00,CLR,,0.01,1088.0,WeatherDisplay:10.37,2013-04-29 17:38:00,
2013-04-29 13:43:00,64.2,55.4,29.90,SSW,209,6.0,6.0,73,0.00,CLR,,0.01,339.0,WeatherDisplay:10.37,2013-04-29 17:43:00,
2013-04-29 13:48:00,64.5,55.7,29.90,WNW,290,4.6,4.6,73,0.00,CLR,,0.01,1081.0,WeatherDisplay:10.37,2013-04-29 17:48:00,
2013-04-29 13:53:00,64.7,54.3,29.90,WNW,286,2.3,2.3,69,0.00,FEW,,0.01,318.0,WeatherDisplay:10.37,2013-04-29 17:53:00,
2013-04-29 13:58:00,64.9,55.3,29.89,West,261,5.8,5.8,71,0.00,CLR,,0.01,353.0,WeatherDisplay:10.37,2013-04-29 17:58:00,
2013-04-29 14:03:00,64.6,54.2,29.89,NW,321,5.8,5.8,69,0.00,FEW,,0.01,297.0,WeatherDisplay:10.37,2013-04-29 18:03:00,
2013-04-29 14:08:00,64.8,55.9,29.89,WSW,254,2.3,2.3,73,0.00,CLR,,0.01,1069.0,WeatherDisplay:10.37,2013-04-29 18:08:00,
2013-04-29 14:13:00,65.0,54.2,29.89,North,355,5.0,5.0,68,0.00,FEW,,0.01,322.0,WeatherDisplay:10.37,2013-04-29 18:13:00,
2013-04-29 14:18:00,65.2,55.6,29.89,WNW,300,3.5,3.5,71,0.00,CLR,,0.01,1069.0,WeatherDisplay:10.37,2013-04-29 18:18:00,
2013-04-29 14:23:00,65.8,54.5,29.89,WSW,257,3.5,3.5,67,0.00,CLR,,0.01,1067.0,WeatherDisplay:10.37,2013-04-29 18:23:00,
2013-04-29 14:28:00,66.3,55.4,29.89,WSW,257,4.0,4.0,68,0.00,CLR,,0.01,990.0,WeatherDisplay:10.37,2013-04-29 18:28:00,
2013-04-29 14:33:00,67.1,56.2,29.89,WSW,248,7.0,7.0,68,0.00,CLR,,0.01,997.0,WeatherDisplay:10.37,2013-04-29 18:33:00,
2013-04-29 14:38:00,67.2,55.5,29.89,SW,225,1.1,1.1,66,0.00,CLR,,0.01,1013.0,WeatherDisplay:10.37,2013-04-29 18:38:00,
2013-04-29 14:43:00,67.4,54.8,29.89,WSW,247,5.0,5.0,64,0.00,CLR,,0.01,1037.0,WeatherDisplay:10.37,2013-04-29 18:43:00,
2013-04-29 14:48:00,67.4,55.2,29.88,West,263,7.0,7.0,65,0.00,CLR,,0.01,916.0,WeatherDisplay:10.37,2013-04-29 18:48:00,
2013-04-29 14:53:00,67.9,55.3,29.88,West,267,5.8,5.8,64,0.00,CLR,,0.01,932.0,WeatherDisplay:10.37,2013-04-29 18:53:00,
2013-04-29 14:58:00,67.8,55.6,29.88,SSW,192,2.0,2.0,65,0.00,CLR,,0.01,854.0,WeatherDisplay:10.37,2013-04-29 18:58:00,
2013-04-29 15:03:00,68.0,54.9,29.88,West,271,4.6,4.6,63,0.00,CLR,,0.01,348.0,WeatherDisplay:10.37,2013-04-29 19:03:00,
2013-04-29 15:08:00,67.7,54.2,29.88,WSW,238,5.8,5.8,62,0.00,CLR,,0.01,844.0,WeatherDisplay:10.37,2013-04-29 19:08:00,
2013-04-29 15:13:00,67.8,55.2,29.88,SW,236,6.9,6.9,64,0.00,CLR,,0.01,817.0,WeatherDisplay:10.37,2013-04-29 19:13:00,
2013-04-29 15:18:00,68.1,54.1,29.88,South,169,4.6,4.6,61,0.00,SCT,,0.01,410.0,WeatherDisplay:10.37,2013-04-29 19:18:00,
2013-04-29 15:23:00,68.3,53.9,29.88,SSE,161,1.1,1.1,60,0.00,CLR,,0.01,867.0,WeatherDisplay:10.37,2013-04-29 19:23:00,
2013-04-29 15:28:00,68.8,54.3,29.88,WSW,244,5.0,5.0,60,0.00,CLR,,0.01,715.0,WeatherDisplay:10.37,2013-04-29 19:28:00,
2013-04-29 15:33:00,68.8,55.2,29.88,WNW,303,6.0,6.0,62,0.00,BKN,,0.01,306.0,WeatherDisplay:10.37,2013-04-29 19:33:00,
2013-04-29 15:38:00,68.2,53.8,29.88,WNW,296,8.1,8.1,60,0.00,SCT,,0.01,345.0,WeatherDisplay:10.37,2013-04-29 19:38:00,
2013-04-29 15:43:00,68.0,54.0,29.88,SW,235,5.8,5.8,61,0.00,BKN,,0.01,346.0,WeatherDisplay:10.37,2013-04-29 19:43:00,
2013-04-29 15:48:00,68.0,54.0,29.88,South,170,2.3,2.3,61,0.00,SCT,,0.01,404.0,WeatherDisplay:10.37,2013-04-29 19:48:00,
2013-04-29 15:53:00,68.2,53.8,29.88,South,184,5.0,5.6,60,0.00,SCT,,0.01,475.0,WeatherDisplay:10.37,2013-04-29 19:53:00,
2013-04-29 15:58:00,68.1,54.1,29.88,SW,223,9.2,9.2,61,0.00,BKN,,0.01,301.0,WeatherDisplay:10.37,2013-04-29 19:58:00,
2013-04-29 16:03:00,68.0,54.5,29.88,WSW,258,2.0,2.0,62,0.00,BKN,,0.01,278.0,WeatherDisplay:10.37,2013-04-29 20:03:00,
2013-04-29 16:08:00,68.0,53.6,29.87,SW,223,3.5,3.5,60,0.00,BKN,,0.01,306.0,WeatherDisplay:10.37,2013-04-29 20:08:00,
2013-04-29 16:13:00,68.1,53.7,29.87,WSW,254,3.5,3.5,60,0.00,BKN,,0.01,304.0,WeatherDisplay:10.37,2013-04-29 20:13:00,
2013-04-29 16:18:00,68.3,53.4,29.87,SSW,209,6.0,6.0,59,0.00,BKN,,0.01,367.0,WeatherDisplay:10.37,2013-04-29 20:18:00,
2013-04-29 16:23:00,68.4,53.0,29.87,SW,214,2.3,0.0,58,0.00,BKN,,0.01,336.0,WeatherDisplay:10.37,2013-04-29 20:23:00,
2013-04-29 16:28:00,68.8,55.7,29.86,ESE,109,2.3,2.3,63,0.00,SCT,,0.01,538.0,WeatherDisplay:10.37,2013-04-29 20:28:00,
2013-04-29 16:33:00,69.0,54.5,29.86,ESE,120,3.5,3.5,60,0.00,SCT,,0.01,591.0,WeatherDisplay:10.37,2013-04-29 20:33:00,
2013-04-29 16:38:00,69.1,53.2,29.86,South,190,5.8,5.8,57,0.00,BKN,,0.01,446.0,WeatherDisplay:10.37,2013-04-29 20:38:00,
2013-04-29 16:43:00,69.3,54.4,29.86,West,269,4.6,4.6,59,0.00,SCT,,0.01,570.0,WeatherDisplay:10.37,2013-04-29 20:43:00,
2013-04-29 16:49:00,69.4,53.0,29.86,SSW,207,3.5,3.5,56,0.00,BKN,,0.01,357.0,WeatherDisplay:10.37,2013-04-29 20:49:00,
2013-04-29 16:54:00,69.5,53.1,29.86,South,178,4.6,4.6,56,0.00,SCT,,0.01,503.0,WeatherDisplay:10.37,2013-04-29 20:54:00,
2013-04-29 16:59:00,69.5,52.6,29.86,WSW,242,3.5,3.5,55,0.00,SCT,,0.01,561.0,WeatherDisplay:10.37,2013-04-29 20:59:00,
2013-04-29 17:04:00,69.9,53.0,29.86,SSE,167,3.5,3.5,55,0.00,SCT,,0.01,584.0,WeatherDisplay:10.37,2013-04-29 21:04:00,
2013-04-29 17:09:00,70.0,53.1,29.86,SSW,210,3.5,3.5,55,0.00,SCT,,0.01,501.0,WeatherDisplay:10.37,2013-04-29 21:09:00,
2013-04-29 17:14:00,70.1,53.7,29.86,South,180,5.8,5.8,56,0.00,BKN,,0.01,338.0,WeatherDisplay:10.37,2013-04-29 21:14:00,
2013-04-29 17:19:00,69.9,53.0,29.86,SSW,204,4.6,4.6,55,0.00,BKN,,0.01,366.0,WeatherDisplay:10.37,2013-04-29 21:19:00,
2013-04-29 17:24:00,69.9,54.0,29.86,South,173,1.1,1.1,57,0.00,BKN,,0.01,436.0,WeatherDisplay:10.37,2013-04-29 21:24:00,
2013-04-29 17:29:00,69.9,53.5,29.86,South,189,8.1,8.1,56,0.00,BKN,,0.01,353.0,WeatherDisplay:10.37,2013-04-29 21:29:00,
2013-04-29 17:34:00,69.7,53.8,29.86,SSW,200,4.6,4.6,57,0.00,BKN,,0.01,292.0,WeatherDisplay:10.37,2013-04-29 21:34:00,
2013-04-29 17:39:00,69.8,52.9,29.86,WSW,244,3.5,3.5,55,0.00,BKN,,0.01,283.0,WeatherDisplay:10.37,2013-04-29 21:39:00,
2013-04-29 17:44:00,69.9,53.0,29.86,South,188,8.1,8.1,55,0.00,BKN,,0.01,269.0,WeatherDisplay:10.37,2013-04-29 21:44:00,
2013-04-29 17:49:00,69.7,53.3,29.86,SSE,158,8.1,8.1,56,0.00,BKN,,0.01,366.0,WeatherDisplay:10.37,2013-04-29 21:49:00,
2013-04-29 17:54:00,69.7,53.3,29.86,South,182,9.2,9.2,56,0.00,BKN,,0.01,309.0,WeatherDisplay:10.37,2013-04-29 21:54:00,
2013-04-29 17:59:00,69.6,52.7,29.86,SSW,208,10.4,10.4,55,0.00,BKN,,0.01,302.0,WeatherDisplay:10.37,2013-04-29 21:59:00,
2013-04-29 18:04:00,69.5,53.1,29.86,SSW,197,3.5,3.5,56,0.00,BKN,,0.01,274.0,WeatherDisplay:10.37,2013-04-29 22:04:00,
2013-04-29 18:09:00,69.4,53.0,29.86,South,189,7.0,7.0,56,0.00,BKN,,0.01,225.0,WeatherDisplay:10.37,2013-04-29 22:09:00,
2013-04-29 18:14:00,69.3,52.9,29.86,SSW,209,3.5,3.5,56,0.00,BKN,,0.01,216.0,WeatherDisplay:10.37,2013-04-29 22:14:00,
2013-04-29 18:19:00,69.4,53.5,29.86,WSW,239,3.5,3.5,57,0.00,BKN,,0.01,188.0,WeatherDisplay:10.37,2013-04-29 22:19:00,
2013-04-29 18:24:00,69.4,53.0,29.85,South,183,8.1,8.1,56,0.00,BKN,,0.01,165.0,WeatherDisplay:10.37,2013-04-29 22:24:00,
2013-04-29 18:29:00,69.1,53.2,29.85,SSE,167,10.4,10.4,57,0.00,BKN,,0.01,156.0,WeatherDisplay:10.37,2013-04-29 22:29:00,
2013-04-29 18:34:00,68.8,53.9,29.86,SE,134,4.6,4.6,59,0.00,BKN,,0.01,146.0,WeatherDisplay:10.37,2013-04-29 22:34:00,
2013-04-29 18:39:00,68.5,54.1,29.86,SSW,193,5.0,5.0,60,0.00,BKN,,0.01,146.0,WeatherDisplay:10.37,2013-04-29 22:39:00,
2013-04-29 18:44:00,68.4,53.5,29.86,SW,227,4.6,4.6,59,0.00,BKN,,0.01,146.0,WeatherDisplay:10.37,2013-04-29 22:44:00,
2013-04-29 18:49:00,68.5,53.6,29.86,South,170,4.0,4.0,59,0.00,BKN,,0.01,144.0,WeatherDisplay:10.37,2013-04-29 22:49:00,
2013-04-29 18:54:00,68.5,53.1,29.86,SSW,194,4.6,4.6,58,0.00,BKN,,0.01,153.0,WeatherDisplay:10.37,2013-04-29 22:54:00,
2013-04-29 18:59:00,68.4,53.0,29.86,South,189,10.0,10.0,58,0.00,BKN,,0.01,142.0,WeatherDisplay:10.37,2013-04-29 22:59:00,
2013-04-29 19:04:00,68.4,53.5,29.86,SSW,196,5.8,5.8,59,0.00,BKN,,0.01,141.0,WeatherDisplay:10.37,2013-04-29 23:04:00,
2013-04-29 19:09:00,68.5,53.6,29.86,South,170,5.8,5.8,59,0.00,BKN,,0.01,148.0,WeatherDisplay:10.37,2013-04-29 23:09:00,
2013-04-29 19:14:00,68.5,53.6,29.86,SSW,192,6.9,6.9,59,0.00,BKN,,0.01,125.0,WeatherDisplay:10.37,2013-04-29 23:14:00,
2013-04-29 19:19:00,68.4,53.0,29.86,South,190,7.0,7.0,58,0.00,BKN,,0.01,100.0,WeatherDisplay:10.37,2013-04-29 23:19:00,
2013-04-29 19:24:00,68.3,52.9,29.86,South,174,6.9,6.9,58,0.00,BKN,,0.01,76.0,WeatherDisplay:10.37,2013-04-29 23:24:00,
2013-04-29 19:29:00,68.2,53.3,29.86,SSW,196,5.0,5.0,59,0.00,BKN,,0.01,56.0,WeatherDisplay:10.37,2013-04-29 23:29:00,
2013-04-29 19:34:00,68.1,53.2,29.86,South,183,5.0,5.0,59,0.00,CLR,,0.01,51.0,WeatherDisplay:10.37,2013-04-29 23:34:00,
2013-04-29 19:39:00,67.9,53.0,29.87,SSE,166,5.8,5.8,59,0.00,CLR,,0.01,54.0,WeatherDisplay:10.37,2013-04-29 23:39:00,
2013-04-29 19:44:00,67.8,53.4,29.87,SSW,201,6.9,6.9,60,0.00,BKN,,0.01,56.0,WeatherDisplay:10.37,2013-04-29 23:44:00,
2013-04-29 19:49:00,67.7,52.9,29.87,South,183,4.6,4.6,59,0.00,CLR,,0.01,51.0,WeatherDisplay:10.37,2013-04-29 23:49:00,
2013-04-29 19:54:00,67.6,53.2,29.87,South,187,4.6,4.6,60,0.00,CLR,,0.01,40.0,WeatherDisplay:10.37,2013-04-29 23:54:00,
2013-04-29 19:59:00,67.4,53.0,29.87,South,186,5.8,5.8,60,0.00,CLR,,0.01,42.0,WeatherDisplay:10.37,2013-04-29 23:59:00,
2013-04-29 20:04:00,67.4,53.0,29.87,SSW,194,7.0,7.0,60,0.00,CLR,,0.01,42.0,WeatherDisplay:10.37,2013-04-30 00:04:00,
2013-04-29 20:09:00,67.3,53.4,29.87,SSE,159,6.9,6.9,61,0.00,CLR,,0.01,40.0,WeatherDisplay:10.37,2013-04-30 00:09:00,
2013-04-29 20:14:00,67.1,53.6,29.87,South,180,3.5,3.5,62,0.00,CLR,,0.01,30.0,WeatherDisplay:10.37,2013-04-30 00:14:00,
2013-04-29 20:19:00,66.9,53.5,29.87,SSE,167,4.6,4.6,62,0.00,CLR,,0.01,19.0,WeatherDisplay:10.37,2013-04-30 00:19:00,
2013-04-29 20:24:00,66.6,53.6,29.86,SSE,163,4.0,4.0,63,0.00,CLR,,0.01,12.0,WeatherDisplay:10.37,2013-04-30 00:24:00,
2013-04-29 20:29:00,66.3,53.3,29.86,South,178,3.5,3.5,63,0.00,CLR,,0.01,7.0,WeatherDisplay:10.37,2013-04-30 00:29:00,
2013-04-29 20:34:00,65.9,53.4,29.86,South,175,3.5,3.5,64,0.00,CLR,,0.01,0.0,WeatherDisplay:10.37,2013-04-30 00:34:00,
2013-04-29 20:39:00,65.6,53.5,29.86,SSE,164,3.5,3.5,65,0.00,CLR,,0.01,0.0,WeatherDisplay:10.37,2013-04-30 00:39:00,
2013-04-29 20:44:00,65.2,53.1,29.87,SSE,166,3.5,3.5,65,0.00,CLR,,0.01,0.0,WeatherDisplay:10.37,2013-04-30 00:44:00,
2013-04-29 20:49:00,65.0,53.4,29.87,SSE,150,3.5,3.5,66,0.00,CLR,,0.01,0.0,WeatherDisplay:10.37,2013-04-30 00:49:00,
2013-04-29 20:54:00,64.9,53.7,29.87,South,177,3.5,3.5,67,0.00,CLR,,0.01,0.0,WeatherDisplay:10.37,2013-04-30 00:54:00,
2013-04-29 20:59:00,64.8,53.6,29.87,South,170,3.5,3.5,67,0.00,CLR,,0.01,0.0,WeatherDisplay:10.37,2013-04-30 00:59:00,
2013-04-29 21:04:00,64.6,53.8,29.87,SSE,158,3.5,3.5,68,0.00,CLR,,0.01,0.0,WeatherDisplay:10.37,2013-04-30 01:04:00,
2013-04-29 21:09:00,64.3,53.5,29.87,South,173,3.5,3.5,68,0.00,CLR,,0.01,0.0,WeatherDisplay:10.37,2013-04-30 01:09:00,
2013-04-29 21:14:00,64.0,53.6,29.87,South,180,3.5,3.5,69,0.00,CLR,,0.01,0.0,WeatherDisplay:10.37,2013-04-30 01:14:00,
2013-04-29 21:19:00,64.0,53.6,29.87,South,182,3.5,3.5,69,0.00,CLR,,0.01,0.0,WeatherDisplay:10.37,2013-04-30 01:19:00,
2013-04-29 21:24:00,64.1,53.7,29.88,South,173,5.8,5.8,69,0.00,CLR,,0.01,0.0,WeatherDisplay:10.37,2013-04-30 01:24:00,
2013-04-29 21:29:00,64.1,53.7,29.88,SSE,165,3.5,3.5,69,0.00,CLR,,0.01,0.0,WeatherDisplay:10.37,2013-04-30 01:29:00,
2013-04-29 21:34:00,64.0,54.0,29.88,SSE,157,4.0,4.0,70,0.00,CLR,,0.01,0.0,WeatherDisplay:10.37,2013-04-30 01:34:00,
2013-04-29 21:39:00,63.8,53.8,29.88,SSE,166,3.5,3.5,70,0.00,CLR,,0.01,0.0,WeatherDisplay:10.37,2013-04-30 01:39:00,
2013-04-29 21:44:00,63.5,53.9,29.88,SSE,156,2.3,2.3,71,0.00,CLR,,0.01,0.0,WeatherDisplay:10.37,2013-04-30 01:44:00,
2013-04-29 21:49:00,63.2,53.6,29.88,SSE,165,3.5,3.5,71,0.00,CLR,,0.01,0.0,WeatherDisplay:10.37,2013-04-30 01:49:00,
2013-04-29 21:54:00,63.1,53.5,29.88,SE,145,3.5,3.5,71,0.00,CLR,,0.01,0.0,WeatherDisplay:10.37,2013-04-30 01:54:00,
2013-04-29 21:59:00,62.9,53.7,29.88,SSE,159,3.5,3.5,72,0.00,CLR,,0.01,0.0,WeatherDisplay:10.37,2013-04-30 01:59:00,
2013-04-29 22:04:00,62.8,53.6,29.88,South,169,4.6,4.6,72,0.00,CLR,,0.01,0.0,WeatherDisplay:10.37,2013-04-30 02:04:00,
2013-04-29 22:09:00,62.8,54.0,29.88,SSE,152,5.8,5.8,73,0.00,CLR,,0.01,0.0,WeatherDisplay:10.37,2013-04-30 02:09:00,
2013-04-29 22:14:00,62.8,54.0,29.89,SSE,163,4.6,4.6,73,0.00,CLR,,0.01,0.0,WeatherDisplay:10.37,2013-04-30 02:14:00,
2013-04-29 22:19:00,63.0,53.8,29.89,SSE,153,4.6,4.6,72,0.00,CLR,,0.01,0.0,WeatherDisplay:10.37,2013-04-30 02:19:00,
2013-04-29 22:24:00,63.2,54.4,29.89,South,171,8.1,8.1,73,0.00,CLR,,0.01,0.0,WeatherDisplay:10.37,2013-04-30 02:24:00,
2013-04-29 22:29:00,63.4,54.2,29.89,SSE,159,5.0,5.0,72,0.00,CLR,,0.01,0.0,WeatherDisplay:10.37,2013-04-30 02:29:00,
2013-04-29 22:34:00,63.5,54.3,29.89,SSE,163,6.9,6.9,72,0.00,CLR,,0.01,0.0,WeatherDisplay:10.37,2013-04-30 02:34:00,
2013-04-29 22:39:00,63.5,54.3,29.89,SE,142,10.0,10.0,72,0.00,CLR,,0.01,0.0,WeatherDisplay:10.37,2013-04-30 02:39:00,
2013-04-29 22:44:00,63.4,54.6,29.89,SSE,149,8.1,8.1,73,0.00,CLR,,0.01,0.0,WeatherDisplay:10.37,2013-04-30 02:44:00,
2013-04-29 22:49:00,63.3,54.9,29.89,SSW,192,6.9,6.9,74,0.00,CLR,,0.01,0.0,WeatherDisplay:10.37,2013-04-30 02:49:00,
2013-04-29 22:54:00,63.2,54.8,29.89,South,182,5.0,5.0,74,0.00,CLR,,0.01,0.0,WeatherDisplay:10.37,2013-04-30 02:54:00,
2013-04-29 22:59:00,63.1,55.0,29.89,South,174,10.4,10.4,75,0.00,CLR,,0.01,0.0,WeatherDisplay:10.37,2013-04-30 02:59:00,
2013-04-29 23:04:00,62.9,54.9,29.89,SSE,166,6.9,6.9,75,0.00,CLR,,0.01,0.0,WeatherDisplay:10.37,2013-04-30 03:04:00,
2013-04-29 23:09:00,62.7,54.7,29.89,South,186,8.1,8.1,75,0.00,CLR,,0.01,0.0,WeatherDisplay:10.37,2013-04-30 03:09:00,
2013-04-29 23:14:00,62.6,54.9,29.89,SSW,194,6.9,6.9,76,0.00,CLR,,0.01,0.0,WeatherDisplay:10.37,2013-04-30 03:14:00,
2013-04-29 23:19:00,62.5,54.8,29.89,South,173,6.9,6.9,76,0.00,CLR,,0.01,0.0,WeatherDisplay:10.37,2013-04-30 03:19:00,
2013-04-29 23:24:00,62.3,55.0,29.89,SSE,157,5.8,5.8,77,0.00,CLR,,0.01,0.0,WeatherDisplay:10.37,2013-04-30 03:24:00,
2013-04-29 23:29:00,62.2,54.9,29.89,SSE,148,6.9,6.9,77,0.00,CLR,,0.01,0.0,WeatherDisplay:10.37,2013-04-30 03:29:00,
2013-04-29 23:34:00,62.0,54.7,29.89,SSE,158,5.0,5.0,77,0.00,CLR,,0.01,0.0,WeatherDisplay:10.37,2013-04-30 03:34:00,
2013-04-29 23:39:00,61.8,54.9,29.89,South,173,6.9,6.9,78,0.00,CLR,,0.01,0.0,WeatherDisplay:10.37,2013-04-30 03:39:00,
2013-04-29 23:44:00,61.7,54.8,29.90,SSE,159,3.5,3.5,78,0.00,CLR,,0.01,0.0,WeatherDisplay:10.37,2013-04-30 03:44:00,
2013-04-29 23:49:00,61.6,54.7,29.90,South,175,4.6,4.6,78,0.00,CLR,,0.01,0.0,WeatherDisplay:10.37,2013-04-30 03:49:00,
2013-04-29 23:54:00,61.6,54.7,29.90,SSE,167,6.0,6.0,78,0.00,CLR,,0.01,0.0,WeatherDisplay:10.37,2013-04-30 03:54:00,
2013-04-29 23:59:00,61.5,54.6,29.90,SSE,163,6.9,6.9,78,0.00,CLR,,0.01,0.0,WeatherDisplay:10.37,2013-04-30 03:59:00,